sensor_id;sensor_type;location;lat;lon;timestamp;pressure;altitude;pressure_sealevel;temperature;humidity
16580;BME280;8402;51.466;6.806;2023-05-03T00:02:05;102559.03;;;9.41;65.59
16580;BME280;8402;51.466;6.806;2023-05-03T00:04:36;102556.06;;;9.37;65.80
16580;BME280;8402;51.466;6.806;2023-05-03T00:07:09;102554.13;;;9.33;65.63
16580;BME280;8402;51.466;6.806;2023-05-03T00:09:40;102560.88;;;9.30;66.04
16580;BME280;8402;51.466;6.806;2023-05-03T00:12:09;102564.91;;;9.28;65.97
16580;BME280;8402;51.466;6.806;2023-05-03T00:14:39;102565.44;;;9.25;66.20
16580;BME280;8402;51.466;6.806;2023-05-03T00:17:10;102563.28;;;9.22;66.39
16580;BME280;8402;51.466;6.806;2023-05-03T00:19:40;102564.59;;;9.19;66.19
16580;BME280;8402;51.466;6.806;2023-05-03T00:22:13;102563.22;;;9.17;66.32
16580;BME280;8402;51.466;6.806;2023-05-03T00:24:43;102563.50;;;9.15;66.33
16580;BME280;8402;51.466;6.806;2023-05-03T00:27:15;102568.59;;;9.12;66.26
16580;BME280;8402;51.466;6.806;2023-05-03T00:29:45;102569.13;;;9.08;66.39
16580;BME280;8402;51.466;6.806;2023-05-03T00:32:15;102568.53;;;9.06;66.61
16580;BME280;8402;51.466;6.806;2023-05-03T00:34:51;102579.34;;;9.01;66.85
16580;BME280;8402;51.466;6.806;2023-05-03T00:37:24;102569.03;;;8.98;66.94
16580;BME280;8402;51.466;6.806;2023-05-03T00:39:55;102565.78;;;8.96;66.77
16580;BME280;8402;51.466;6.806;2023-05-03T00:42:25;102567.94;;;8.94;66.98
16580;BME280;8402;51.466;6.806;2023-05-03T00:44:55;102570.88;;;8.93;66.89
16580;BME280;8402;51.466;6.806;2023-05-03T00:47:25;102561.66;;;8.89;66.69
16580;BME280;8402;51.466;6.806;2023-05-03T00:49:55;102567.31;;;8.87;66.85
16580;BME280;8402;51.466;6.806;2023-05-03T00:52:28;102568.09;;;8.82;67.27
16580;BME280;8402;51.466;6.806;2023-05-03T00:54:58;102568.34;;;8.81;67.17
16580;BME280;8402;51.466;6.806;2023-05-03T00:57:29;102567.22;;;8.77;67.26
16580;BME280;8402;51.466;6.806;2023-05-03T00:59:59;102569.63;;;8.73;67.01
16580;BME280;8402;51.466;6.806;2023-05-03T01:02:30;102568.50;;;8.69;67.68
16580;BME280;8402;51.466;6.806;2023-05-03T01:05:00;102570.91;;;8.66;67.82
16580;BME280;8402;51.466;6.806;2023-05-03T01:07:42;102566.53;;;8.60;68.13
16580;BME280;8402;51.466;6.806;2023-05-03T01:10:21;102569.72;;;8.57;68.52
16580;BME280;8402;51.466;6.806;2023-05-03T01:13:03;102567.53;;;8.53;68.44
16580;BME280;8402;51.466;6.806;2023-05-03T01:15:45;102568.88;;;8.51;68.41
16580;BME280;8402;51.466;6.806;2023-05-03T01:18:20;102573.16;;;8.47;68.38
16580;BME280;8402;51.466;6.806;2023-05-03T01:20:52;102567.47;;;8.43;68.14
16580;BME280;8402;51.466;6.806;2023-05-03T01:23:34;102566.31;;;8.39;69.04
16580;BME280;8402;51.466;6.806;2023-05-03T01:26:18;102577.66;;;8.36;69.42
16580;BME280;8402;51.466;6.806;2023-05-03T01:28:49;102564.34;;;8.35;68.37
16580;BME280;8402;51.466;6.806;2023-05-03T01:31:24;102571.09;;;8.32;68.65
16580;BME280;8402;51.466;6.806;2023-05-03T01:34:12;102578.63;;;8.30;69.01
16580;BME280;8402;51.466;6.806;2023-05-03T01:36:44;102568.91;;;8.29;68.81
16580;BME280;8402;51.466;6.806;2023-05-03T01:39:18;102566.94;;;8.24;68.93
16580;BME280;8402;51.466;6.806;2023-05-03T01:41:52;102580.13;;;8.21;69.02
16580;BME280;8402;51.466;6.806;2023-05-03T01:44:23;102568.75;;;8.19;68.88
16580;BME280;8402;51.466;6.806;2023-05-03T01:46:56;102577.41;;;8.16;68.96
16580;BME280;8402;51.466;6.806;2023-05-03T01:49:26;102576.81;;;8.14;69.21
16580;BME280;8402;51.466;6.806;2023-05-03T01:51:56;102587.06;;;8.12;69.40
16580;BME280;8402;51.466;6.806;2023-05-03T01:54:26;102582.19;;;8.09;69.15
16580;BME280;8402;51.466;6.806;2023-05-03T01:56:58;102586.19;;;8.06;69.69
16580;BME280;8402;51.466;6.806;2023-05-03T01:59:28;102591.03;;;8.04;69.66
16580;BME280;8402;51.466;6.806;2023-05-03T02:01:58;102592.38;;;8.02;69.71
16580;BME280;8402;51.466;6.806;2023-05-03T02:04:28;102603.66;;;7.98;69.38
16580;BME280;8402;51.466;6.806;2023-05-03T02:06:58;102600.41;;;7.96;69.58
16580;BME280;8402;51.466;6.806;2023-05-03T02:09:28;102591.72;;;7.94;69.60
16580;BME280;8402;51.466;6.806;2023-05-03T02:12:00;102598.78;;;7.95;70.19
16580;BME280;8402;51.466;6.806;2023-05-03T02:14:30;102598.78;;;7.95;70.20
16580;BME280;8402;51.466;6.806;2023-05-03T02:17:04;102603.09;;;7.96;70.38
16580;BME280;8402;51.466;6.806;2023-05-03T02:19:34;102606.63;;;7.97;70.17
16580;BME280;8402;51.466;6.806;2023-05-03T02:22:04;102603.09;;;7.96;69.99
16580;BME280;8402;51.466;6.806;2023-05-03T02:24:34;102605.81;;;7.96;69.95
16580;BME280;8402;51.466;6.806;2023-05-03T02:27:08;102604.72;;;7.97;70.08
16580;BME280;8402;51.466;6.806;2023-05-03T02:29:38;102604.19;;;7.95;69.92
16580;BME280;8402;51.466;6.806;2023-05-03T02:32:08;102608.44;;;7.91;70.00
16580;BME280;8402;51.466;6.806;2023-05-03T02:34:37;102612.72;;;7.87;70.35
16580;BME280;8402;51.466;6.806;2023-05-03T02:37:07;102613.19;;;7.84;70.32
16580;BME280;8402;51.466;6.806;2023-05-03T02:39:37;102619.94;;;7.82;70.32
16580;BME280;8402;51.466;6.806;2023-05-03T02:42:10;102617.50;;;7.80;70.52
16580;BME280;8402;51.466;6.806;2023-05-03T02:44:40;102620.66;;;7.77;70.49
16580;BME280;8402;51.466;6.806;2023-05-03T02:47:12;102614.72;;;7.75;70.73
16580;BME280;8402;51.466;6.806;2023-05-03T02:49:41;102618.72;;;7.72;70.43
16580;BME280;8402;51.466;6.806;2023-05-03T02:52:11;102618.16;;;7.70;70.64
16580;BME280;8402;51.466;6.806;2023-05-03T02:54:41;102610.56;;;7.67;70.95
16580;BME280;8402;51.466;6.806;2023-05-03T02:57:15;102610.81;;;7.66;71.19
16580;BME280;8402;51.466;6.806;2023-05-03T02:59:45;102607.50;;;7.64;71.24
16580;BME280;8402;51.466;6.806;2023-05-03T03:02:15;102603.44;;;7.61;71.21
16580;BME280;8402;51.466;6.806;2023-05-03T03:04:45;102606.38;;;7.60;71.25
16580;BME280;8402;51.466;6.806;2023-05-03T03:07:14;102599.59;;;7.57;71.24
16580;BME280;8402;51.466;6.806;2023-05-03T03:09:44;102598.19;;;7.55;71.25
16580;BME280;8402;51.466;6.806;2023-05-03T03:12:17;102594.94;;;7.53;71.51
16580;BME280;8402;51.466;6.806;2023-05-03T03:14:47;102591.69;;;7.51;71.40
16580;BME280;8402;51.466;6.806;2023-05-03T03:17:17;102583.50;;;7.45;71.36
16580;BME280;8402;51.466;6.806;2023-05-03T03:19:47;102587.25;;;7.44;71.33
16580;BME280;8402;51.466;6.806;2023-05-03T03:22:17;102582.34;;;7.41;71.41
16580;BME280;8402;51.466;6.806;2023-05-03T03:24:46;102577.44;;;7.38;71.63
16580;BME280;8402;51.466;6.806;2023-05-03T03:27:19;102580.06;;;7.33;71.93
16580;BME280;8402;51.466;6.806;2023-05-03T03:29:49;102575.41;;;7.29;71.96
16580;BME280;8402;51.466;6.806;2023-05-03T03:32:19;102580.81;;;7.29;72.13
16580;BME280;8402;51.466;6.806;2023-05-03T03:34:49;102575.66;;;7.27;72.17
16580;BME280;8402;51.466;6.806;2023-05-03T03:37:19;102568.59;;;7.26;72.24
16580;BME280;8402;51.466;6.806;2023-05-03T03:39:50;102572.38;;;7.25;72.06
16580;BME280;8402;51.466;6.806;2023-05-03T03:42:24;102569.94;;;7.24;72.14
16580;BME280;8402;51.466;6.806;2023-05-03T03:44:54;102569.13;;;7.23;72.10
16580;BME280;8402;51.466;6.806;2023-05-03T03:47:24;102562.09;;;7.22;72.12
16580;BME280;8402;51.466;6.806;2023-05-03T03:49:54;102560.69;;;7.20;72.06
16580;BME280;8402;51.466;6.806;2023-05-03T03:52:24;102569.84;;;7.18;72.04
16580;BME280;8402;51.466;6.806;2023-05-03T03:54:55;102560.13;;;7.17;72.09
16580;BME280;8402;51.466;6.806;2023-05-03T03:57:27;102553.91;;;7.17;72.42
16580;BME280;8402;51.466;6.806;2023-05-03T03:59:58;102552.75;;;7.13;72.38
16580;BME280;8402;51.466;6.806;2023-05-03T04:02:31;102548.91;;;7.09;72.46
16580;BME280;8402;51.466;6.806;2023-05-03T04:05:01;102545.41;;;7.08;72.51
16580;BME280;8402;51.466;6.806;2023-05-03T04:07:32;102535.09;;;7.05;72.56
16580;BME280;8402;51.466;6.806;2023-05-03T04:10:02;102542.06;;;7.01;73.17
16580;BME280;8402;51.466;6.806;2023-05-03T04:12:35;102535.25;;;6.99;72.82
16580;BME280;8402;51.466;6.806;2023-05-03T04:15:07;102540.91;;;6.97;72.75
16580;BME280;8402;51.466;6.806;2023-05-03T04:17:37;102551.94;;;6.96;72.91
16580;BME280;8402;51.466;6.806;2023-05-03T04:20:08;102552.41;;;6.93;73.18
16580;BME280;8402;51.466;6.806;2023-05-03T04:22:39;102558.22;;;6.84;73.24
16580;BME280;8402;51.466;6.806;2023-05-03T04:25:10;102565.66;;;6.77;73.68
16580;BME280;8402;51.466;6.806;2023-05-03T04:27:46;102572.38;;;6.75;73.93
16580;BME280;8402;51.466;6.806;2023-05-03T04:30:17;102573.69;;;6.72;74.20
16580;BME280;8402;51.466;6.806;2023-05-03T04:32:47;102588.81;;;6.73;74.03
16580;BME280;8402;51.466;6.806;2023-05-03T04:35:20;102589.38;;;6.75;74.20
16580;BME280;8402;51.466;6.806;2023-05-03T04:37:50;102591.00;;;6.76;74.14
16580;BME280;8402;51.466;6.806;2023-05-03T04:40:20;102595.59;;;6.76;74.28
16580;BME280;8402;51.466;6.806;2023-05-03T04:42:52;102598.03;;;6.77;74.60
16580;BME280;8402;51.466;6.806;2023-05-03T04:45:23;102592.63;;;6.77;74.53
16580;BME280;8402;51.466;6.806;2023-05-03T04:47:53;102596.41;;;6.76;74.29
16580;BME280;8402;51.466;6.806;2023-05-03T04:50:23;102593.13;;;6.74;74.52
16580;BME280;8402;51.466;6.806;2023-05-03T04:52:53;102591.97;;;6.70;74.80
16580;BME280;8402;51.466;6.806;2023-05-03T04:55:23;102587.06;;;6.67;75.09
16580;BME280;8402;51.466;6.806;2023-05-03T04:57:55;102587.06;;;6.67;75.26
16580;BME280;8402;51.466;6.806;2023-05-03T05:00:25;102596.78;;;6.68;75.04
16580;BME280;8402;51.466;6.806;2023-05-03T05:02:55;102588.69;;;6.68;75.22
16580;BME280;8402;51.466;6.806;2023-05-03T05:05:25;102590.84;;;6.66;74.99
16580;BME280;8402;51.466;6.806;2023-05-03T05:07:57;102594.59;;;6.65;75.35
16580;BME280;8402;51.466;6.806;2023-05-03T05:10:27;102601.63;;;6.66;75.55
16580;BME280;8402;51.466;6.806;2023-05-03T05:12:59;102610.28;;;6.68;75.56
16580;BME280;8402;51.466;6.806;2023-05-03T05:15:29;102607.34;;;6.70;75.68
16580;BME280;8402;51.466;6.806;2023-05-03T05:17:59;102611.91;;;6.69;75.90
16580;BME280;8402;51.466;6.806;2023-05-03T05:20:29;102620.25;;;6.68;76.14
16580;BME280;8402;51.466;6.806;2023-05-03T05:22:59;102622.72;;;6.69;75.89
16580;BME280;8402;51.466;6.806;2023-05-03T05:25:29;102629.75;;;6.70;76.29
16580;BME280;8402;51.466;6.806;2023-05-03T05:28:02;102643.81;;;6.72;76.49
16580;BME280;8402;51.466;6.806;2023-05-03T05:30:32;102634.66;;;6.73;76.14
16580;BME280;8402;51.466;6.806;2023-05-03T05:33:02;102637.94;;;6.75;76.29
16580;BME280;8402;51.466;6.806;2023-05-03T05:35:32;102636.06;;;6.76;76.55
16580;BME280;8402;51.466;6.806;2023-05-03T05:38:02;102636.97;;;6.81;76.40
16580;BME280;8402;51.466;6.806;2023-05-03T05:40:32;102643.50;;;6.85;76.95
16580;BME280;8402;51.466;6.806;2023-05-03T05:43:04;102637.88;;;6.87;77.28
16580;BME280;8402;51.466;6.806;2023-05-03T05:45:35;102636.06;;;6.93;77.05
16580;BME280;8402;51.466;6.806;2023-05-03T05:48:05;102639.94;;;6.97;76.76
16580;BME280;8402;51.466;6.806;2023-05-03T05:50:35;102646.16;;;6.97;77.06
16580;BME280;8402;51.466;6.806;2023-05-03T05:53:05;102643.19;;;6.99;77.05
16580;BME280;8402;51.466;6.806;2023-05-03T05:55:35;102654.34;;;7.02;76.64
16580;BME280;8402;51.466;6.806;2023-05-03T05:58:08;102643.56;;;7.02;78.60
16580;BME280;8402;51.466;6.806;2023-05-03T06:00:39;102651.41;;;7.04;77.40
16580;BME280;8402;51.466;6.806;2023-05-03T06:03:09;102649.25;;;7.06;77.48
16580;BME280;8402;51.466;6.806;2023-05-03T06:05:39;102643.88;;;7.06;77.76
16580;BME280;8402;51.466;6.806;2023-05-03T06:08:09;102648.78;;;7.09;77.58
16580;BME280;8402;51.466;6.806;2023-05-03T06:10:39;102658.63;;;7.15;77.28
16580;BME280;8402;51.466;6.806;2023-05-03T06:13:11;102660.31;;;7.21;77.47
16580;BME280;8402;51.466;6.806;2023-05-03T06:15:44;102656.66;;;7.27;77.61
16580;BME280;8402;51.466;6.806;2023-05-03T06:18:14;102656.84;;;7.37;77.32
16580;BME280;8402;51.466;6.806;2023-05-03T06:20:47;102654.28;;;7.48;77.77
16580;BME280;8402;51.466;6.806;2023-05-03T06:23:17;102663.59;;;7.57;77.33
16580;BME280;8402;51.466;6.806;2023-05-03T06:25:47;102653.53;;;7.69;77.59
16580;BME280;8402;51.466;6.806;2023-05-03T06:28:19;102658.06;;;7.85;77.46
16580;BME280;8402;51.466;6.806;2023-05-03T06:30:49;102657.94;;;8.14;77.61
16580;BME280;8402;51.466;6.806;2023-05-03T06:33:20;102653.00;;;8.49;77.13
16580;BME280;8402;51.466;6.806;2023-05-03T06:35:52;102648.00;;;8.90;76.98
16580;BME280;8402;51.466;6.806;2023-05-03T06:38:22;102643.47;;;9.28;77.05
16580;BME280;8402;51.466;6.806;2023-05-03T06:40:53;102640.22;;;9.63;76.27
16580;BME280;8402;51.466;6.806;2023-05-03T06:43:25;102645.81;;;9.88;74.92
16580;BME280;8402;51.466;6.806;2023-05-03T06:45:55;102645.38;;;10.12;74.39
16580;BME280;8402;51.466;6.806;2023-05-03T06:48:25;102644.09;;;10.25;73.15
16580;BME280;8402;51.466;6.806;2023-05-03T06:50:55;102650.72;;;10.54;74.14
16580;BME280;8402;51.466;6.806;2023-05-03T06:53:25;102653.75;;;10.73;72.51
16580;BME280;8402;51.466;6.806;2023-05-03T06:55:55;102648.63;;;10.87;71.64
16580;BME280;8402;51.466;6.806;2023-05-03T06:58:28;102645.94;;;11.22;73.28
16580;BME280;8402;51.466;6.806;2023-05-03T07:01:00;102639.69;;;11.57;71.70
16580;BME280;8402;51.466;6.806;2023-05-03T07:03:30;102640.72;;;11.77;69.42
16580;BME280;8402;51.466;6.806;2023-05-03T07:06:00;102640.72;;;11.82;68.86
16580;BME280;8402;51.466;6.806;2023-05-03T07:08:31;102637.69;;;11.99;69.07
16580;BME280;8402;51.466;6.806;2023-05-03T07:11:01;102636.50;;;12.25;68.30
16580;BME280;8402;51.466;6.806;2023-05-03T07:13:33;102640.25;;;12.34;66.88
16580;BME280;8402;51.466;6.806;2023-05-03T07:16:04;102632.50;;;12.62;67.94
16580;BME280;8402;51.466;6.806;2023-05-03T07:18:34;102635.09;;;12.82;66.11
16580;BME280;8402;51.466;6.806;2023-05-03T07:21:04;102631.22;;;12.93;66.03
16580;BME280;8402;51.466;6.806;2023-05-03T07:23:35;102617.97;;;13.16;66.30
16580;BME280;8402;51.466;6.806;2023-05-03T07:26:05;102620.09;;;13.24;64.83
16580;BME280;8402;51.466;6.806;2023-05-03T07:28:38;102620.09;;;13.53;65.43
16580;BME280;8402;51.466;6.806;2023-05-03T07:31:08;102613.44;;;13.88;65.63
16580;BME280;8402;51.466;6.806;2023-05-03T07:33:38;102625.75;;;14.10;63.58
16580;BME280;8402;51.466;6.806;2023-05-03T07:36:08;102619.56;;;14.23;63.42
16580;BME280;8402;51.466;6.806;2023-05-03T07:38:38;102616.34;;;14.40;62.61
16580;BME280;8402;51.466;6.806;2023-05-03T07:41:08;102600.06;;;14.53;59.15
16580;BME280;8402;51.466;6.806;2023-05-03T07:43:42;102591.94;;;14.67;59.85
16580;BME280;8402;51.466;6.806;2023-05-03T07:46:14;102588.97;;;14.82;61.02
16580;BME280;8402;51.466;6.806;2023-05-03T07:48:44;102594.25;;;14.93;61.17
16580;BME280;8402;51.466;6.806;2023-05-03T07:51:14;102590.13;;;14.95;58.73
16580;BME280;8402;51.466;6.806;2023-05-03T07:53:44;102598.34;;;14.95;56.69
16580;BME280;8402;51.466;6.806;2023-05-03T07:56:14;102602.00;;;15.04;57.89
16580;BME280;8402;51.466;6.806;2023-05-03T07:58:47;102598.56;;;15.12;56.48
16580;BME280;8402;51.466;6.806;2023-05-03T08:01:34;102592.34;;;15.26;56.94
16580;BME280;8402;51.466;6.806;2023-05-03T08:04:04;102598.06;;;15.43;56.82
16580;BME280;8402;51.466;6.806;2023-05-03T08:06:34;102596.66;;;15.59;56.13
16580;BME280;8402;51.466;6.806;2023-05-03T08:09:04;102590.09;;;15.74;55.70
16580;BME280;8402;51.466;6.806;2023-05-03T08:11:34;102578.22;;;15.92;55.45
16580;BME280;8402;51.466;6.806;2023-05-03T08:14:08;102584.09;;;16.13;53.28
16580;BME280;8402;51.466;6.806;2023-05-03T08:16:38;102580.06;;;16.47;55.52
16580;BME280;8402;51.466;6.806;2023-05-03T08:19:08;102570.16;;;16.73;54.67
16580;BME280;8402;51.466;6.806;2023-05-03T08:21:38;102576.50;;;16.83;53.00
16580;BME280;8402;51.466;6.806;2023-05-03T08:24:08;102576.38;;;16.88;53.04
16580;BME280;8402;51.466;6.806;2023-05-03T08:26:41;102576.84;;;16.67;49.54
16580;BME280;8402;51.466;6.806;2023-05-03T08:29:15;102571.13;;;16.77;50.24
16580;BME280;8402;51.466;6.806;2023-05-03T08:31:45;102565.38;;;16.65;49.71
16580;BME280;8402;51.466;6.806;2023-05-03T08:34:15;102566.78;;;16.76;48.54
16580;BME280;8402;51.466;6.806;2023-05-03T08:36:45;102565.53;;;16.83;48.79
16580;BME280;8402;51.466;6.806;2023-05-03T08:39:15;102555.06;;;16.85;48.24
16580;BME280;8402;51.466;6.806;2023-05-03T08:41:45;102558.75;;;16.80;47.21
16580;BME280;8402;51.466;6.806;2023-05-03T08:44:20;102560.66;;;17.02;48.43
16580;BME280;8402;51.466;6.806;2023-05-03T08:46:51;102556.28;;;17.23;47.66
16580;BME280;8402;51.466;6.806;2023-05-03T08:49:22;102559.13;;;17.49;49.02
16580;BME280;8402;51.466;6.806;2023-05-03T08:51:54;102565.50;;;17.67;48.56
16580;BME280;8402;51.466;6.806;2023-05-03T08:54:25;102554.25;;;17.77;47.00
16580;BME280;8402;51.466;6.806;2023-05-03T08:56:55;102550.88;;;17.89;47.42
16580;BME280;8402;51.466;6.806;2023-05-03T08:59:27;102543.13;;;18.00;46.23
16580;BME280;8402;51.466;6.806;2023-05-03T09:01:57;102553.22;;;18.22;48.17
16580;BME280;8402;51.466;6.806;2023-05-03T09:04:31;102555.31;;;18.33;44.42
16580;BME280;8402;51.466;6.806;2023-05-03T09:07:07;102544.31;;;18.33;44.27
16580;BME280;8402;51.466;6.806;2023-05-03T09:09:38;102537.69;;;18.43;47.21
16580;BME280;8402;51.466;6.806;2023-05-03T09:12:10;102534.94;;;18.52;46.78
16580;BME280;8402;51.466;6.806;2023-05-03T09:14:45;102548.53;;;18.65;46.35
16580;BME280;8402;51.466;6.806;2023-05-03T09:17:17;102552.44;;;18.73;46.17
16580;BME280;8402;51.466;6.806;2023-05-03T09:19:52;102543.66;;;18.88;45.33
16580;BME280;8402;51.466;6.806;2023-05-03T09:22:25;102537.50;;;18.91;43.01
16580;BME280;8402;51.466;6.806;2023-05-03T09:24:58;102531.00;;;19.05;44.58
16580;BME280;8402;51.466;6.806;2023-05-03T09:27:32;102524.97;;;19.11;45.40
16580;BME280;8402;51.466;6.806;2023-05-03T09:30:16;102525.34;;;19.01;44.03
16580;BME280;8402;51.466;6.806;2023-05-03T09:32:47;102533.56;;;19.10;44.86
16580;BME280;8402;51.466;6.806;2023-05-03T09:35:18;102531.41;;;19.24;45.17
16580;BME280;8402;51.466;6.806;2023-05-03T09:37:49;102533.09;;;18.99;42.54
16580;BME280;8402;51.466;6.806;2023-05-03T09:40:19;102534.28;;;18.89;42.57
16580;BME280;8402;51.466;6.806;2023-05-03T09:43:08;102528.28;;;18.87;40.65
16580;BME280;8402;51.466;6.806;2023-05-03T09:45:42;102513.84;;;19.08;43.23
16580;BME280;8402;51.466;6.806;2023-05-03T09:48:12;102518.09;;;19.35;43.79
16580;BME280;8402;51.466;6.806;2023-05-03T09:50:43;102512.34;;;19.57;44.38
16580;BME280;8402;51.466;6.806;2023-05-03T09:53:14;102502.50;;;19.77;43.47
16580;BME280;8402;51.466;6.806;2023-05-03T09:55:46;102507.22;;;19.97;43.38
16580;BME280;8402;51.466;6.806;2023-05-03T09:58:17;102502.19;;;19.99;43.22
16580;BME280;8402;51.466;6.806;2023-05-03T10:00:50;102495.75;;;19.95;41.20
16580;BME280;8402;51.466;6.806;2023-05-03T10:03:23;102494.94;;;20.16;43.01
16580;BME280;8402;51.466;6.806;2023-05-03T10:05:57;102497.91;;;20.31;43.48
16580;BME280;8402;51.466;6.806;2023-05-03T10:08:39;102493.09;;;20.41;42.30
16580;BME280;8402;51.466;6.806;2023-05-03T10:11:11;102496.03;;;20.44;41.29
16580;BME280;8402;51.466;6.806;2023-05-03T10:13:44;102487.75;;;20.44;42.22
16580;BME280;8402;51.466;6.806;2023-05-03T10:16:20;102474.53;;;20.50;41.50
16580;BME280;8402;51.466;6.806;2023-05-03T10:18:57;102484.78;;;20.49;40.47
16580;BME280;8402;51.466;6.806;2023-05-03T10:21:34;102481.69;;;20.30;38.96
16580;BME280;8402;51.466;6.806;2023-05-03T10:24:10;102495.69;;;20.46;41.37
16580;BME280;8402;51.466;6.806;2023-05-03T10:26:44;102478.84;;;20.59;41.19
16580;BME280;8402;51.466;6.806;2023-05-03T10:29:45;102480.69;;;20.68;40.09
16580;BME280;8402;51.466;6.806;2023-05-03T10:32:38;102488.72;;;20.60;37.97
16580;BME280;8402;51.466;6.806;2023-05-03T10:35:13;102485.31;;;20.76;39.75
16580;BME280;8402;51.466;6.806;2023-05-03T10:37:43;102486.31;;;20.71;39.79
16580;BME280;8402;51.466;6.806;2023-05-03T10:40:15;102494.28;;;20.73;40.13
16580;BME280;8402;51.466;6.806;2023-05-03T10:42:50;102489.81;;;20.80;40.07
16580;BME280;8402;51.466;6.806;2023-05-03T10:45:23;102487.88;;;20.93;39.71
16580;BME280;8402;51.466;6.806;2023-05-03T10:48:17;102483.38;;;20.76;38.36
16580;BME280;8402;51.466;6.806;2023-05-03T10:50:49;102466.72;;;20.97;38.93
16580;BME280;8402;51.466;6.806;2023-05-03T10:53:35;102467.66;;;20.89;37.00
16580;BME280;8402;51.466;6.806;2023-05-03T10:56:06;102458.25;;;21.02;39.32
16580;BME280;8402;51.466;6.806;2023-05-03T10:58:41;102468.09;;;20.91;38.13
16580;BME280;8402;51.466;6.806;2023-05-03T11:01:13;102462.38;;;21.08;39.59
16580;BME280;8402;51.466;6.806;2023-05-03T11:03:49;102475.03;;;21.22;39.34
16580;BME280;8402;51.466;6.806;2023-05-03T11:06:30;102469.66;;;20.68;35.39
16580;BME280;8402;51.466;6.806;2023-05-03T11:09:04;102449.38;;;20.97;38.72
16580;BME280;8402;51.466;6.806;2023-05-03T11:11:36;102457.16;;;20.82;37.76
16580;BME280;8402;51.466;6.806;2023-05-03T11:14:11;102455.78;;;20.76;36.59
16580;BME280;8402;51.466;6.806;2023-05-03T11:16:41;102444.19;;;20.95;38.42
16580;BME280;8402;51.466;6.806;2023-05-03T11:19:20;102445.59;;;21.01;36.53
16580;BME280;8402;51.466;6.806;2023-05-03T11:21:50;102437.41;;;21.05;37.17
16580;BME280;8402;51.466;6.806;2023-05-03T11:24:20;102433.50;;;21.18;38.06
16580;BME280;8402;51.466;6.806;2023-05-03T11:26:49;102430.22;;;21.37;37.94
16580;BME280;8402;51.466;6.806;2023-05-03T11:29:20;102434.53;;;21.62;37.50
16580;BME280;8402;51.466;6.806;2023-05-03T11:31:50;102432.47;;;21.59;35.04
16580;BME280;8402;51.466;6.806;2023-05-03T11:34:25;102424.69;;;21.37;35.20
16580;BME280;8402;51.466;6.806;2023-05-03T11:36:56;102427.91;;;21.39;36.16
16580;BME280;8402;51.466;6.806;2023-05-03T11:39:31;102428.06;;;21.70;36.97
16580;BME280;8402;51.466;6.806;2023-05-03T11:42:02;102430.88;;;21.58;33.55
16580;BME280;8402;51.466;6.806;2023-05-03T11:44:32;102429.66;;;21.71;36.00
16580;BME280;8402;51.466;6.806;2023-05-03T11:47:03;102428.19;;;21.74;35.39
16580;BME280;8402;51.466;6.806;2023-05-03T11:49:40;102426.44;;;21.69;35.10
16580;BME280;8402;51.466;6.806;2023-05-03T11:52:20;102420.66;;;21.87;36.66
16580;BME280;8402;51.466;6.806;2023-05-03T11:54:51;102430.78;;;21.83;35.82
16580;BME280;8402;51.466;6.806;2023-05-03T11:57:20;102429.44;;;21.77;35.87
16580;BME280;8402;51.466;6.806;2023-05-03T11:59:50;102430.75;;;21.95;35.81
16580;BME280;8402;51.466;6.806;2023-05-03T12:02:21;102427.47;;;22.17;35.74
16580;BME280;8402;51.466;6.806;2023-05-03T12:04:55;102432.25;;;22.33;34.38
16580;BME280;8402;51.466;6.806;2023-05-03T12:07:26;102427.81;;;22.44;35.55
16580;BME280;8402;51.466;6.806;2023-05-03T12:09:56;102425.25;;;22.51;36.01
16580;BME280;8402;51.466;6.806;2023-05-03T12:12:31;102427.28;;;22.54;35.08
16580;BME280;8402;51.466;6.806;2023-05-03T12:15:08;102421.56;;;22.47;35.20
16580;BME280;8402;51.466;6.806;2023-05-03T12:17:42;102416.50;;;22.65;35.48
16580;BME280;8402;51.466;6.806;2023-05-03T12:20:20;102419.16;;;22.45;33.47
16580;BME280;8402;51.466;6.806;2023-05-03T12:23:10;102410.16;;;22.64;35.82
16580;BME280;8402;51.466;6.806;2023-05-03T12:25:41;102409.34;;;22.64;34.14
16580;BME280;8402;51.466;6.806;2023-05-03T12:28:15;102401.84;;;22.64;34.44
16580;BME280;8402;51.466;6.806;2023-05-03T12:30:47;102396.34;;;22.80;35.35
16580;BME280;8402;51.466;6.806;2023-05-03T12:33:19;102393.81;;;22.75;34.44
16580;BME280;8402;51.466;6.806;2023-05-03T12:35:52;102380.06;;;22.63;33.55
16580;BME280;8402;51.466;6.806;2023-05-03T12:38:25;102393.22;;;22.66;34.88
16580;BME280;8402;51.466;6.806;2023-05-03T12:40:56;102378.47;;;22.77;34.81
16580;BME280;8402;51.466;6.806;2023-05-03T12:43:26;102370.84;;;22.87;35.49
16580;BME280;8402;51.466;6.806;2023-05-03T12:45:59;102361.69;;;22.55;31.86
16580;BME280;8402;51.466;6.806;2023-05-03T12:48:48;102365.34;;;22.43;33.91
16580;BME280;8402;51.466;6.806;2023-05-03T12:51:22;102366.06;;;22.40;33.83
16580;BME280;8402;51.466;6.806;2023-05-03T12:53:58;102362.50;;;22.55;34.53
16580;BME280;8402;51.466;6.806;2023-05-03T12:56:29;102357.06;;;22.59;34.64
16580;BME280;8402;51.466;6.806;2023-05-03T12:59:05;102350.63;;;22.55;34.42
16580;BME280;8402;51.466;6.806;2023-05-03T13:01:38;102353.94;;;22.60;34.93
16580;BME280;8402;51.466;6.806;2023-05-03T13:04:10;102351.78;;;22.69;35.14
16580;BME280;8402;51.466;6.806;2023-05-03T13:06:46;102338.06;;;22.89;35.52
16580;BME280;8402;51.466;6.806;2023-05-03T13:09:24;102339.66;;;22.90;34.02
16580;BME280;8402;51.466;6.806;2023-05-03T13:12:14;102331.88;;;22.95;34.51
16580;BME280;8402;51.466;6.806;2023-05-03T13:14:46;102335.25;;;23.04;34.28
16580;BME280;8402;51.466;6.806;2023-05-03T13:17:17;102325.28;;;23.19;34.46
16580;BME280;8402;51.466;6.806;2023-05-03T13:19:50;102330.41;;;23.17;33.73
16580;BME280;8402;51.466;6.806;2023-05-03T13:22:22;102312.72;;;23.06;33.87
16580;BME280;8402;51.466;6.806;2023-05-03T13:24:53;102309.16;;;23.05;33.71
16580;BME280;8402;51.466;6.806;2023-05-03T13:27:22;102315.34;;;22.99;33.77
16580;BME280;8402;51.466;6.806;2023-05-03T13:29:55;102301.38;;;23.11;34.99
16580;BME280;8402;51.466;6.806;2023-05-03T13:32:25;102303.28;;;23.26;34.53